Time;durP1;ratioP1;P1;durP2;ratioP2;P2;SDS_P1;SDS_P2;PMS_P1;PMS_P2;Temp;Humidity;BMP_temperature;BMP_pressure;BME280_temperature;BME280_humidity;BME280_pressure;Samples;Min_cycle;Max_cycle;Signal;HPM_P1;HPM_P2
2023/03/08 00:00:24;;;;;;;10.70;2.70;;;1.80;1.00;;;;;;6091077;23;20272;-74
2023/03/08 00:02:52;;;;;;;10.35;2.67;;;1.70;1.00;;;;;;6091579;23;20306;-75
2023/03/08 00:05:19;;;;;;;11.73;2.80;;;1.70;1.00;;;;;;6093416;23;20697;-74
2023/03/08 00:07:46;;;;;;;13.98;2.80;;;1.70;1.00;;;;;;6092998;23;20866;-74
2023/03/08 00:10:14;;;;;;;10.40;2.83;;;1.60;1.00;;;;;;6091873;23;20220;-75
2023/03/08 00:12:41;;;;;;;8.48;3.20;;;1.50;1.00;;;;;;6087648;23;20216;-75
2023/03/08 00:15:08;;;;;;;10.65;2.42;;;1.50;1.00;;;;;;6093512;23;20698;-73
2023/03/08 00:17:37;;;;;;;10.07;2.25;;;1.50;1.00;;;;;;6091355;23;20216;-73
2023/03/08 00:20:05;;;;;;;9.70;2.70;;;1.50;1.00;;;;;;6086134;23;20216;-75
2023/03/08 00:22:36;;;;;;;11.32;3.05;;;1.40;1.00;;;;;;6092787;23;20944;-73
2023/03/08 00:25:03;;;;;;;10.18;3.15;;;1.40;1.00;;;;;;6095930;23;20627;-75
2023/03/08 00:27:32;;;;;;;7.97;2.80;;;1.40;1.00;;;;;;6097769;23;20216;-73
2023/03/08 00:29:59;;;;;;;8.93;2.72;;;1.30;1.00;;;;;;6097726;23;20276;-74
2023/03/08 00:32:26;;;;;;;10.30;3.08;;;1.30;1.00;;;;;;6094957;23;20240;-73
2023/03/08 00:34:53;;;;;;;10.48;3.05;;;1.30;1.00;;;;;;6096961;23;20255;-73
2023/03/08 00:37:20;;;;;;;10.85;3.47;;;1.30;1.00;;;;;;6093572;23;20295;-74
2023/03/08 00:39:51;;;;;;;10.52;3.40;;;1.30;1.00;;;;;;6095067;23;20671;-74
2023/03/08 00:42:18;;;;;;;8.90;3.38;;;1.30;1.00;;;;;;6097071;23;20243;-73
2023/03/08 00:44:47;;;;;;;11.90;3.55;;;1.20;1.00;;;;;;6096973;23;20910;-73
2023/03/08 00:47:14;;;;;;;9.95;2.95;;;1.20;1.00;;;;;;6095952;23;20308;-74
2023/03/08 00:49:41;;;;;;;11.65;3.60;;;1.20;1.00;;;;;;6091968;23;20303;-73
2023/03/08 00:52:09;;;;;;;9.90;3.85;;;1.20;1.00;;;;;;6095862;23;20307;-74
2023/03/08 00:54:36;;;;;;;10.07;3.67;;;1.20;1.00;;;;;;6094542;23;20698;-73
2023/03/08 00:57:03;;;;;;;9.20;3.40;;;1.20;1.00;;;;;;6094215;23;20212;-73
2023/03/08 00:59:30;;;;;;;14.10;4.60;;;1.10;1.00;;;;;;6097103;23;20257;-73
2023/03/08 01:01:58;;;;;;;8.48;2.92;;;1.10;1.00;;;;;;6099641;23;20699;-73
2023/03/08 01:04:25;;;;;;;10.48;3.42;;;1.10;1.00;;;;;;6091335;23;20220;-74
2023/03/08 01:06:52;;;;;;;11.60;3.70;;;1.10;1.00;;;;;;6094274;23;21007;-74
2023/03/08 01:09:19;;;;;;;13.82;5.40;;;1.10;1.00;;;;;;6094816;23;20220;-73
2023/03/08 01:11:46;;;;;;;11.95;4.15;;;1.10;1.00;;;;;;6097594;23;20216;-73
2023/03/08 01:14:13;;;;;;;11.90;4.32;;;1.10;1.00;;;;;;6094150;23;20215;-72
2023/03/08 01:16:41;;;;;;;9.25;3.95;;;1.10;1.00;;;;;;6093415;23;20268;-73
2023/03/08 01:19:10;;;;;;;15.05;3.97;;;1.10;1.00;;;;;;6095385;23;20896;-72
2023/03/08 01:21:38;;;;;;;12.80;4.85;;;1.10;1.00;;;;;;6096216;23;20216;-73
2023/03/08 01:24:05;;;;;;;12.32;4.07;;;1.00;1.00;;;;;;6096799;23;20234;-73
2023/03/08 01:26:32;;;;;;;10.60;4.55;;;1.00;1.00;;;;;;6093118;23;20945;-73
2023/03/08 01:28:59;;;;;;;11.45;5.18;;;1.00;1.00;;;;;;6095315;23;20255;-74
2023/03/08 01:31:29;;;;;;;14.82;4.55;;;1.00;1.00;;;;;;6093339;23;20275;-74
2023/03/08 01:33:57;;;;;;;10.75;4.95;;;0.90;1.00;;;;;;6093389;23;20303;-72
2023/03/08 01:36:29;;;;;;;12.48;5.05;;;1.00;1.00;;;;;;6089627;23;20212;-74
2023/03/08 01:38:56;;;;;;;13.10;5.00;;;0.90;1.00;;;;;;6096716;23;20220;-74
2023/03/08 01:41:26;;;;;;;12.63;5.47;;;0.90;1.00;;;;;;6097387;23;20253;-72
2023/03/08 01:43:54;;;;;;;11.65;4.47;;;0.90;1.00;;;;;;6097664;23;20216;-73
2023/03/08 01:46:25;;;;;;;14.43;5.15;;;0.90;1.00;;;;;;6094913;23;21120;-74
2023/03/08 01:48:56;;;;;;;13.75;5.15;;;0.90;1.00;;;;;;6089695;23;20678;-74
2023/03/08 01:51:31;;;;;;;11.52;5.05;;;0.80;1.00;;;;;;6090464;23;20236;-72
2023/03/08 01:54:02;;;;;;;15.32;5.82;;;0.90;1.00;;;;;;6099155;23;20246;-72
2023/03/08 01:56:29;;;;;;;11.77;5.10;;;0.90;1.00;;;;;;6094077;23;20582;-73
2023/03/08 01:58:57;;;;;;;13.38;5.28;;;0.80;1.00;;;;;;6098102;23;20722;-75
2023/03/08 02:01:24;;;;;;;14.07;6.15;;;0.80;1.00;;;;;;6099968;23;20219;-76
2023/03/08 02:03:51;;;;;;;13.65;6.25;;;0.80;1.00;;;;;;6099815;23;20303;-74
2023/03/08 02:06:20;;;;;;;13.95;5.75;;;0.80;1.00;;;;;;6095477;23;20295;-75
2023/03/08 02:08:51;;;;;;;13.43;6.60;;;0.80;1.00;;;;;;6095153;23;20239;-74
2023/03/08 02:11:20;;;;;;;14.88;6.80;;;0.70;1.00;;;;;;6092939;23;20223;-74
2023/03/08 02:13:48;;;;;;;16.48;6.60;;;0.80;1.00;;;;;;6094620;23;20220;-75
2023/03/08 02:16:17;;;;;;;14.55;7.03;;;0.80;1.00;;;;;;6096178;23;20251;-75
2023/03/08 02:18:53;;;;;;;15.60;6.50;;;0.80;1.00;;;;;;6088937;23;20226;-76
2023/03/08 02:21:20;;;;;;;16.63;6.72;;;0.80;1.00;;;;;;6094202;23;20990;-74
2023/03/08 02:23:51;;;;;;;12.88;6.63;;;0.90;1.00;;;;;;6098140;23;20247;-75
2023/03/08 02:26:18;;;;;;;14.90;7.30;;;0.90;1.00;;;;;;6096731;23;20226;-74
2023/03/08 02:28:45;;;;;;;14.45;7.90;;;0.90;1.00;;;;;;6094315;23;20575;-76
2023/03/08 02:31:13;;;;;;;16.55;7.43;;;0.80;1.00;;;;;;6096607;23;20378;-75
2023/03/08 02:33:40;;;;;;;12.52;6.90;;;0.80;1.00;;;;;;6095907;23;20691;-75
2023/03/08 02:36:08;;;;;;;15.30;7.40;;;0.80;1.00;;;;;;6090254;23;20507;-75
2023/03/08 02:38:35;;;;;;;14.27;7.25;;;0.80;1.00;;;;;;6095481;23;20300;-74
2023/03/08 02:41:04;;;;;;;17.95;7.70;;;0.80;1.00;;;;;;6097490;23;20367;-74
2023/03/08 02:43:30;;;;;;;14.82;7.88;;;0.70;1.00;;;;;;6094785;23;20254;-75
2023/03/08 02:45:57;;;;;;;15.13;7.72;;;0.70;1.00;;;;;;6095685;23;20220;-75
2023/03/08 02:48:24;;;;;;;15.77;7.97;;;0.70;1.00;;;;;;6090415;23;20840;-74
2023/03/08 02:50:51;;;;;;;16.70;8.63;;;0.70;1.00;;;;;;6068330;23;20502;-75
2023/03/08 02:53:18;;;;;;;14.48;7.95;;;0.70;1.00;;;;;;6094872;23;20224;-74
2023/03/08 02:55:45;;;;;;;15.18;7.78;;;0.70;1.00;;;;;;6095862;23;20218;-75
2023/03/08 02:58:14;;;;;;;20.10;9.27;;;0.70;1.00;;;;;;6097327;23;21012;-76
2023/03/08 03:00:40;;;;;;;20.23;9.15;;;0.70;1.00;;;;;;6093908;23;20223;-73
2023/03/08 03:03:08;;;;;;;18.17;9.90;;;0.70;1.00;;;;;;6093120;23;20315;-73
2023/03/08 03:05:35;;;;;;;17.15;9.75;;;0.70;1.00;;;;;;6094761;23;20208;-73
2023/03/08 03:08:02;;;;;;;17.90;9.48;;;0.70;1.00;;;;;;6091263;23;20220;-72
2023/03/08 03:10:28;;;;;;;16.95;8.98;;;0.70;1.00;;;;;;6089721;23;20227;-73
2023/03/08 03:12:55;;;;;;;20.45;9.93;;;0.70;1.00;;;;;;6093472;23;20534;-73
2023/03/08 03:15:24;;;;;;;25.17;11.15;;;0.70;1.00;;;;;;6095037;23;20311;-73
2023/03/08 03:17:51;;;;;;;17.90;9.55;;;0.80;1.00;;;;;;6094481;23;20264;-75
2023/03/08 03:20:18;;;;;;;17.00;9.73;;;0.80;1.00;;;;;;6095026;23;20541;-74
2023/03/08 03:22:46;;;;;;;18.13;9.55;;;0.80;1.00;;;;;;6090698;23;20236;-73
2023/03/08 03:25:13;;;;;;;20.50;10.10;;;0.80;1.00;;;;;;6092562;23;20220;-74
2023/03/08 03:27:39;;;;;;;17.35;9.98;;;0.90;1.00;;;;;;6095478;23;20322;-74
2023/03/08 03:30:10;;;;;;;20.98;9.95;;;0.90;1.00;;;;;;6095760;23;20247;-74
2023/03/08 03:32:38;;;;;;;17.55;9.55;;;0.90;1.00;;;;;;6093603;23;20267;-74
2023/03/08 03:35:06;;;;;;;20.05;11.55;;;0.90;1.00;;;;;;6095146;23;20682;-72
2023/03/08 03:37:35;;;;;;;22.10;10.85;;;0.80;1.00;;;;;;6091282;23;20224;-72
2023/03/08 03:40:02;;;;;;;22.00;11.32;;;0.80;1.00;;;;;;6097855;23;20227;-72
2023/03/08 03:42:29;;;;;;;19.00;10.43;;;0.80;1.00;;;;;;6094363;23;20216;-75
2023/03/08 03:44:57;;;;;;;21.98;10.80;;;0.80;1.00;;;;;;6095986;23;20218;-72
2023/03/08 03:47:24;;;;;;;21.77;10.40;;;0.90;1.00;;;;;;6095384;23;20316;-73
2023/03/08 03:49:52;;;;;;;19.13;11.32;;;0.90;1.00;;;;;;6094886;23;20254;-73
2023/03/08 03:52:19;;;;;;;16.77;9.63;;;0.90;1.00;;;;;;6094384;23;20212;-74
2023/03/08 03:54:46;;;;;;;20.02;9.45;;;1.00;1.00;;;;;;6090470;23;20232;-73
2023/03/08 03:57:13;;;;;;;16.13;9.55;;;1.00;1.00;;;;;;6093921;23;20311;-73
2023/03/08 03:59:40;;;;;;;17.98;9.48;;;1.00;1.00;;;;;;6094044;23;20273;-73
2023/03/08 04:02:06;;;;;;;18.63;10.27;;;1.10;1.00;;;;;;6094853;23;20296;-73
2023/03/08 04:04:33;;;;;;;21.08;10.93;;;1.10;1.00;;;;;;6093918;23;20706;-73
2023/03/08 04:07:02;;;;;;;21.80;11.38;;;1.10;1.00;;;;;;6096912;23;20837;-73
2023/03/08 04:09:28;;;;;;;20.33;10.55;;;1.10;1.00;;;;;;6092798;23;20327;-72
2023/03/08 04:11:55;;;;;;;17.30;9.73;;;1.10;1.00;;;;;;6093692;23;20298;-72
2023/03/08 04:14:22;;;;;;;18.75;9.80;;;1.10;1.00;;;;;;6088442;23;20219;-74
2023/03/08 04:16:49;;;;;;;19.95;10.32;;;1.10;1.00;;;;;;6096373;23;20299;-74
2023/03/08 04:19:16;;;;;;;17.25;9.18;;;1.20;1.00;;;;;;6096388;23;20222;-73
2023/03/08 04:21:43;;;;;;;18.23;10.23;;;1.10;1.00;;;;;;6096019;23;20245;-74
2023/03/08 04:24:11;;;;;;;16.30;8.90;;;1.20;1.00;;;;;;6090626;23;21178;-73
2023/03/08 04:26:38;;;;;;;18.27;9.82;;;1.20;1.00;;;;;;6095917;23;20267;-74
2023/03/08 04:29:05;;;;;;;17.85;8.68;;;1.20;1.00;;;;;;6095196;23;20212;-73
2023/03/08 04:31:37;;;;;;;16.58;8.93;;;1.10;1.00;;;;;;6093719;23;20312;-73
2023/03/08 04:34:04;;;;;;;17.80;10.15;;;1.10;1.00;;;;;;6097503;23;20216;-74
2023/03/08 04:36:31;;;;;;;18.30;9.13;;;1.10;1.00;;;;;;6094365;23;21034;-74
2023/03/08 04:38:59;;;;;;;18.38;9.50;;;1.10;1.00;;;;;;6093732;23;20307;-75
2023/03/08 04:41:27;;;;;;;16.48;9.40;;;1.20;1.00;;;;;;6092798;23;20219;-74
2023/03/08 04:43:56;;;;;;;14.75;8.73;;;1.20;1.00;;;;;;6092290;23;20631;-74
2023/03/08 04:46:25;;;;;;;17.23;8.90;;;1.20;1.00;;;;;;6095160;23;20216;-74
2023/03/08 04:48:54;;;;;;;18.10;10.32;;;1.30;1.00;;;;;;6097304;23;20216;-73
2023/03/08 04:51:23;;;;;;;15.20;8.57;;;1.30;1.00;;;;;;6097463;23;20224;-73
2023/03/08 04:53:50;;;;;;;18.75;9.23;;;1.30;1.00;;;;;;6096500;23;21097;-73
2023/03/08 04:56:18;;;;;;;17.27;9.55;;;1.20;1.00;;;;;;6097049;23;20671;-74
2023/03/08 04:58:46;;;;;;;14.07;8.82;;;1.10;1.00;;;;;;6093671;23;20240;-72
2023/03/08 05:01:15;;;;;;;17.42;9.27;;;1.00;1.00;;;;;;6089750;23;20244;-73
2023/03/08 05:03:43;;;;;;;18.08;9.20;;;0.90;1.00;;;;;;6094269;23;20215;-74
2023/03/08 05:06:12;;;;;;;15.07;8.98;;;0.80;1.00;;;;;;6095263;23;20220;-73
2023/03/08 05:08:39;;;;;;;15.50;8.80;;;0.80;1.00;;;;;;6097077;23;20216;-73
2023/03/08 05:11:06;;;;;;;15.60;8.32;;;0.70;1.00;;;;;;6095523;23;20267;-74
2023/03/08 05:13:35;;;;;;;20.00;9.27;;;0.70;1.00;;;;;;6093471;23;20216;-75
2023/03/08 05:16:06;;;;;;;16.50;8.93;;;0.70;1.00;;;;;;6089273;23;20279;-75
2023/03/08 05:18:33;;;;;;;15.00;8.60;;;0.70;1.00;;;;;;6096862;23;20219;-75
2023/03/08 05:21:04;;;;;;;15.88;8.25;;;0.60;1.00;;;;;;6094525;23;20581;-74
2023/03/08 05:23:32;;;;;;;18.13;8.43;;;0.60;1.00;;;;;;6094019;23;20252;-74
2023/03/08 05:26:01;;;;;;;15.88;9.23;;;0.60;1.00;;;;;;6097258;23;20913;-74
2023/03/08 05:28:31;;;;;;;14.00;7.90;;;0.60;1.00;;;;;;6093430;23;20623;-75
2023/03/08 05:31:04;;;;;;;17.45;9.70;;;0.70;1.00;;;;;;6093356;23;20220;-75
2023/03/08 05:33:32;;;;;;;16.98;10.57;;;0.70;1.00;;;;;;6092161;23;20239;-75
2023/03/08 05:35:59;;;;;;;16.27;9.05;;;0.70;1.00;;;;;;6093284;23;20216;-75
2023/03/08 05:38:26;;;;;;;16.70;9.75;;;0.80;1.00;;;;;;6091871;23;20239;-75
2023/03/08 05:40:53;;;;;;;17.50;9.55;;;0.90;1.00;;;;;;6093721;23;20882;-75
2023/03/08 05:43:21;;;;;;;17.00;9.52;;;0.90;1.00;;;;;;6096245;23;20694;-74
2023/03/08 05:45:56;;;;;;;16.85;10.00;;;0.90;1.00;;;;;;6093489;23;20216;-74
2023/03/08 05:48:25;;;;;;;16.40;9.10;;;0.90;1.00;;;;;;6093345;23;20215;-73
2023/03/08 05:50:52;;;;;;;16.65;10.05;;;0.80;1.00;;;;;;6095421;23;20212;-74
2023/03/08 05:53:19;;;;;;;19.10;10.60;;;0.90;1.00;;;;;;6091881;23;20243;-74
2023/03/08 05:55:46;;;;;;;17.33;9.77;;;0.80;1.00;;;;;;6091117;23;20226;-74
2023/03/08 05:58:13;;;;;;;15.07;9.25;;;0.80;1.00;;;;;;6094286;23;20215;-74
2023/03/08 06:00:40;;;;;;;16.20;9.25;;;0.70;1.00;;;;;;6081826;23;20224;-75
2023/03/08 06:03:09;;;;;;;14.48;9.27;;;0.80;1.00;;;;;;6095288;23;20276;-74
2023/03/08 06:05:38;;;;;;;21.63;10.73;;;0.70;1.00;;;;;;6089898;23;20220;-74
2023/03/08 06:08:06;;;;;;;15.43;9.00;;;0.70;1.00;;;;;;6086136;23;20259;-73
2023/03/08 06:10:34;;;;;;;16.98;10.00;;;0.60;1.00;;;;;;6095534;23;20670;-74
2023/03/08 06:13:02;;;;;;;18.02;9.90;;;0.60;1.00;;;;;;6097041;23;20648;-73
2023/03/08 06:15:29;;;;;;;20.40;10.95;;;0.70;1.00;;;;;;6090358;23;20935;-74
2023/03/08 06:17:56;;;;;;;16.80;9.23;;;0.70;1.00;;;;;;6074927;23;20294;-73
2023/03/08 06:20:23;;;;;;;15.23;8.90;;;0.70;1.00;;;;;;6090411;23;21113;-74
2023/03/08 06:22:52;;;;;;;16.30;9.77;;;0.80;1.00;;;;;;6096054;23;20260;-75
2023/03/08 06:25:19;;;;;;;14.95;9.00;;;0.90;1.00;;;;;;6093614;23;20388;-74
2023/03/08 06:27:48;;;;;;;20.98;10.30;;;1.00;1.00;;;;;;6093854;23;20223;-74
2023/03/08 06:30:16;;;;;;;18.60;9.13;;;1.10;1.00;;;;;;6094214;23;20216;-74
2023/03/08 06:32:43;;;;;;;17.05;9.55;;;1.10;1.00;;;;;;6088081;23;20243;-74
2023/03/08 06:35:10;;;;;;;17.48;9.30;;;1.00;1.00;;;;;;6095098;23;20262;-74
2023/03/08 06:37:37;;;;;;;15.57;9.40;;;0.90;1.00;;;;;;6094797;23;20686;-74
2023/03/08 06:40:08;;;;;;;16.40;9.40;;;0.90;1.00;;;;;;6093041;23;20220;-74
2023/03/08 06:42:34;;;;;;;17.02;10.65;;;1.00;1.00;;;;;;6096159;23;20671;-74
2023/03/08 06:45:01;;;;;;;15.73;9.68;;;1.10;1.00;;;;;;6096828;23;20673;-75
2023/03/08 06:47:30;;;;;;;17.02;10.38;;;1.10;1.00;;;;;;6094328;23;20224;-75
2023/03/08 06:49:57;;;;;;;17.38;9.20;;;1.10;1.00;;;;;;6091547;23;20480;-73
2023/03/08 06:52:24;;;;;;;17.52;10.40;;;1.20;1.00;;;;;;6093148;23;20220;-75
2023/03/08 06:54:51;;;;;;;15.82;9.68;;;1.30;1.00;;;;;;6094922;23;20243;-76
2023/03/08 06:57:19;;;;;;;18.02;10.70;;;1.40;1.00;;;;;;6097581;23;21003;-75
2023/03/08 06:59:46;;;;;;;15.70;9.70;;;1.40;1.00;;;;;;6098837;23;20224;-75
2023/03/08 07:02:13;;;;;;;16.45;9.80;;;1.40;1.00;;;;;;6087302;23;20226;-74
2023/03/08 07:04:40;;;;;;;17.27;9.43;;;1.40;1.00;;;;;;6087703;23;20224;-77
2023/03/08 07:07:07;;;;;;;15.88;9.77;;;1.40;1.00;;;;;;6092022;23;20276;-75
2023/03/08 07:09:34;;;;;;;17.80;10.38;;;1.50;1.00;;;;;;6093433;23;20220;-75
2023/03/08 07:12:01;;;;;;;19.65;11.65;;;1.40;1.00;;;;;;6095643;23;20216;-75
2023/03/08 07:14:29;;;;;;;15.88;10.38;;;1.40;1.00;;;;;;6094403;23;20220;-74
2023/03/08 07:16:56;;;;;;;16.10;10.10;;;1.60;1.00;;;;;;6095226;23;20554;-75
2023/03/08 07:19:23;;;;;;;16.50;10.02;;;1.60;1.00;;;;;;6095279;23;20240;-75
2023/03/08 07:21:50;;;;;;;16.00;9.88;;;1.70;1.00;;;;;;6096934;23;20957;-76
2023/03/08 07:24:17;;;;;;;15.35;9.75;;;1.80;1.00;;;;;;6095966;23;20276;-74
2023/03/08 07:26:44;;;;;;;16.70;10.55;;;2.00;1.00;;;;;;6093643;23;20311;-75
2023/03/08 07:29:11;;;;;;;16.75;9.75;;;2.10;1.00;;;;;;6095087;23;20219;-75
2023/03/08 07:31:42;;;;;;;21.33;9.80;;;2.10;1.00;;;;;;6088899;23;20220;-75
2023/03/08 07:34:09;;;;;;;15.35;9.00;;;2.30;1.00;;;;;;6096591;23;20244;-75
2023/03/08 07:36:37;;;;;;;16.13;9.57;;;2.40;1.00;;;;;;6095249;23;20220;-73
2023/03/08 07:39:04;;;;;;;16.17;9.02;;;2.50;1.00;;;;;;6096363;23;20231;-74
2023/03/08 07:41:32;;;;;;;15.45;8.57;;;2.60;1.00;;;;;;6095023;23;20212;-74
2023/03/08 07:43:58;;;;;;;16.85;8.35;;;2.60;1.00;;;;;;6097552;23;20239;-75
2023/03/08 07:46:26;;;;;;;15.90;8.93;;;2.60;1.00;;;;;;6091927;23;20298;-75
2023/03/08 07:48:55;;;;;;;16.00;9.68;;;2.70;1.00;;;;;;6087683;23;20216;-75
2023/03/08 07:51:22;;;;;;;15.10;9.38;;;2.80;1.00;;;;;;6085817;23;20220;-73
2023/03/08 07:53:49;;;;;;;15.50;9.75;;;2.80;1.00;;;;;;6092084;23;20284;-75
2023/03/08 07:56:16;;;;;;;14.38;8.73;;;3.00;1.00;;;;;;6092916;23;20255;-75
2023/03/08 07:58:43;;;;;;;14.48;8.60;;;3.10;1.00;;;;;;6095090;23;20224;-75
2023/03/08 08:01:10;;;;;;;14.88;9.25;;;3.10;1.00;;;;;;6091898;23;20753;-75
2023/03/08 08:03:38;;;;;;;13.05;8.20;;;3.30;1.00;;;;;;6092665;23;20227;-75
2023/03/08 08:06:07;;;;;;;16.10;10.07;;;3.40;1.00;;;;;;6094244;23;20226;-75
2023/03/08 08:08:34;;;;;;;12.68;8.32;;;3.40;1.00;;;;;;6094990;23;20216;-76
2023/03/08 08:11:00;;;;;;;13.95;9.13;;;3.40;1.00;;;;;;6094231;23;20765;-75
2023/03/08 08:13:27;;;;;;;13.68;9.02;;;3.50;1.00;;;;;;6094070;23;20243;-74
2023/03/08 08:15:59;;;;;;;13.40;8.48;;;3.40;1.00;;;;;;6093778;23;20217;-74
2023/03/08 08:18:26;;;;;;;14.77;8.40;;;3.40;1.00;;;;;;6083540;23;20925;-75
2023/03/08 08:21:00;;;;;;;12.68;8.15;;;3.50;1.00;;;;;;6095853;23;20227;-75
2023/03/08 08:23:33;;;;;;;15.73;9.15;;;3.50;1.00;;;;;;6094530;23;20220;-76
2023/03/08 08:26:00;;;;;;;14.00;9.27;;;3.70;1.00;;;;;;6094636;23;20224;-75
2023/03/08 08:28:28;;;;;;;14.45;8.00;;;3.90;1.00;;;;;;6091186;23;20271;-75
2023/03/08 08:30:59;;;;;;;17.63;9.85;;;4.00;1.00;;;;;;6093327;23;20216;-73
2023/03/08 08:33:27;;;;;;;15.50;9.63;;;4.20;1.00;;;;;;6087289;23;20235;-75
2023/03/08 08:35:54;;;;;;;13.60;8.48;;;4.10;1.00;;;;;;6095993;23;20224;-75
2023/03/08 08:38:21;;;;;;;15.43;9.20;;;4.30;1.00;;;;;;6094293;23;20717;-74
2023/03/08 08:40:49;;;;;;;14.82;8.93;;;4.30;1.00;;;;;;6097440;23;20220;-74
2023/03/08 08:43:16;;;;;;;14.43;8.98;;;4.40;1.00;;;;;;6097073;23;20226;-75
2023/03/08 08:45:44;;;;;;;13.02;7.88;;;4.60;1.00;;;;;;6091143;23;20773;-75
2023/03/08 08:48:11;;;;;;;16.67;9.90;;;4.80;1.00;;;;;;6096480;23;20213;-74
2023/03/08 08:50:39;;;;;;;18.25;11.15;;;5.00;1.00;;;;;;6093898;23;20236;-74
2023/03/08 08:53:06;;;;;;;12.30;8.35;;;5.10;1.00;;;;;;6097523;23;20224;-74
2023/03/08 08:55:33;;;;;;;13.80;8.15;;;5.40;1.00;;;;;;6090663;23;20221;-74
2023/03/08 08:58:02;;;;;;;13.80;8.63;;;5.50;1.00;;;;;;6087757;23;20243;-74
2023/03/08 09:00:30;;;;;;;13.07;7.90;;;5.90;1.00;;;;;;6090701;23;20292;-74
2023/03/08 09:02:57;;;;;;;11.80;7.95;;;6.60;1.00;;;;;;6099088;23;20221;-73
2023/03/08 09:05:24;;;;;;;12.35;6.63;;;7.30;1.00;;;;;;6095214;23;20220;-73
2023/03/08 09:07:53;;;;;;;13.75;7.03;;;7.80;1.00;;;;;;6095920;23;20214;-74
2023/03/08 09:10:20;;;;;;;9.80;5.70;;;8.20;1.00;;;;;;6096578;23;20227;-75
2023/03/08 09:12:47;;;;;;;11.03;7.00;;;8.60;1.00;;;;;;6097008;23;20304;-74
2023/03/08 09:15:16;;;;;;;9.87;6.20;;;9.30;1.00;;;;;;6095565;23;21116;-73
2023/03/08 09:17:43;;;;;;;11.52;6.65;;;9.50;1.00;;;;;;6089197;23;20431;-74
2023/03/08 09:20:11;;;;;;;10.50;6.53;;;9.50;1.00;;;;;;6092872;23;20307;-74
2023/03/08 09:22:39;;;;;;;10.00;5.13;;;9.30;1.00;;;;;;6094230;23;20516;-75
2023/03/08 09:25:06;;;;;;;9.17;5.10;;;9.10;1.00;;;;;;6094205;23;20443;-75
2023/03/08 09:27:34;;;;;;;9.80;6.05;;;9.00;1.00;;;;;;6074661;23;20937;-75
2023/03/08 09:30:01;;;;;;;10.53;5.93;;;8.80;1.00;;;;;;6094199;23;20215;-74
2023/03/08 09:32:29;;;;;;;10.53;6.00;;;8.80;1.00;;;;;;6082455;23;20436;-74
2023/03/08 09:34:57;;;;;;;12.60;5.67;;;8.60;1.00;;;;;;6094637;23;20973;-74
2023/03/08 09:37:24;;;;;;;9.25;5.22;;;8.50;1.00;;;;;;6092616;23;21013;-73
2023/03/08 09:39:51;;;;;;;7.60;4.70;;;8.30;1.00;;;;;;6097537;23;20219;-74
2023/03/08 09:42:23;;;;;;;7.63;4.60;;;7.90;1.00;;;;;;6096501;23;20516;-73
2023/03/08 09:45:05;;;;;;;9.70;5.22;;;7.70;1.00;;;;;;6098175;23;20295;-73
2023/03/08 09:47:41;;;;;;;9.68;5.70;;;7.50;1.00;;;;;;6096394;23;20273;-76
2023/03/08 09:50:21;;;;;;;10.13;5.40;;;7.40;1.00;;;;;;6089333;23;20222;-74
2023/03/08 09:52:53;;;;;;;8.93;5.72;;;7.50;1.00;;;;;;6090214;23;20295;-74
2023/03/08 09:55:28;;;;;;;9.60;5.53;;;7.80;1.00;;;;;;6092302;23;20952;-74
2023/03/08 09:58:01;;;;;;;9.75;5.45;;;7.90;1.00;;;;;;6085207;23;20479;-74
2023/03/08 10:00:31;;;;;;;8.43;5.57;;;8.00;1.00;;;;;;6079297;23;20246;-74
2023/03/08 10:03:30;;;;;;;10.30;6.27;;;8.30;1.00;;;;;;6083777;23;20420;-75
2023/03/08 10:06:04;;;;;;;10.13;5.60;;;8.80;1.00;;;;;;6087936;23;20431;-75
2023/03/08 10:08:36;;;;;;;11.77;5.37;;;9.00;1.00;;;;;;6088199;23;20420;-74
2023/03/08 10:11:06;;;;;;;11.43;5.47;;;9.10;1.00;;;;;;6089525;23;21541;-75
2023/03/08 10:13:35;;;;;;;10.80;5.40;;;9.20;1.00;;;;;;6083420;23;20445;-75
2023/03/08 10:16:15;;;;;;;9.60;5.60;;;9.10;1.00;;;;;;6088473;23;20544;-73
2023/03/08 10:18:50;;;;;;;11.20;5.80;;;9.30;1.00;;;;;;6090677;23;20483;-75
2023/03/08 10:21:22;;;;;;;10.17;5.97;;;10.10;1.00;;;;;;6099057;23;20451;-75
2023/03/08 10:24:11;;;;;;;15.80;7.73;;;10.70;1.00;;;;;;6095653;23;20384;-75
2023/03/08 10:26:40;;;;;;;7.33;4.83;;;10.80;1.00;;;;;;6095385;23;20887;-74
2023/03/08 10:29:07;;;;;;;10.97;4.90;;;10.50;1.00;;;;;;6086523;23;20453;-77
2023/03/08 10:31:34;;;;;;;7.10;5.10;;;10.00;1.00;;;;;;6096894;23;20446;-76
2023/03/08 10:34:12;;;;;;;6.70;5.03;;;9.60;1.00;;;;;;6100624;23;20449;-75
2023/03/08 10:36:49;;;;;;;6.33;4.93;;;9.30;1.00;;;;;;6098169;23;20440;-74
2023/03/08 10:39:16;;;;;;;7.28;5.05;;;8.80;1.00;;;;;;6093124;23;20423;-72
2023/03/08 10:41:45;;;;;;;10.00;4.80;;;8.60;1.00;;;;;;6097330;23;20287;-75
2023/03/08 10:44:15;;;;;;;7.55;5.03;;;8.70;1.00;;;;;;6097714;23;20508;-74
2023/03/08 10:46:50;;;;;;;6.83;4.77;;;9.00;1.00;;;;;;6099032;23;20224;-74
2023/03/08 10:49:19;;;;;;;8.13;4.87;;;9.10;1.00;;;;;;6099443;23;20428;-73
2023/03/08 10:51:55;;;;;;;8.40;3.90;;;8.70;1.00;;;;;;6052697;23;20433;-71
2023/03/08 10:54:22;;;;;;;7.53;3.87;;;8.20;1.00;;;;;;6096361;23;20424;-71
2023/03/08 10:56:54;;;;;;;6.40;4.27;;;8.50;1.00;;;;;;6096343;23;20477;-73
2023/03/08 10:59:27;;;;;;;7.37;4.27;;;8.70;1.00;;;;;;6092772;23;20422;-76
2023/03/08 11:01:57;;;;;;;9.33;5.67;;;8.90;1.00;;;;;;6092296;23;20953;-74
2023/03/08 11:04:28;;;;;;;10.63;5.90;;;9.70;1.00;;;;;;6099429;23;20425;-72
2023/03/08 11:06:55;;;;;;;6.93;4.30;;;10.30;1.00;;;;;;6100682;23;20471;-74
2023/03/08 11:09:27;;;;;;;11.53;5.03;;;11.10;1.00;;;;;;6100963;23;20477;-74
2023/03/08 11:11:55;;;;;;;7.20;4.40;;;11.80;1.00;;;;;;6100215;23;20428;-74
2023/03/08 11:14:22;;;;;;;6.13;3.50;;;12.10;1.00;;;;;;6101239;23;20481;-75
2023/03/08 11:16:55;;;;;;;6.17;4.20;;;11.30;1.00;;;;;;6101465;23;20477;-74
2023/03/08 11:19:52;;;;;;;5.50;3.90;;;10.40;1.00;;;;;;6093145;23;20966;-75
2023/03/08 11:22:29;;;;;;;6.60;3.83;;;9.60;1.00;;;;;;6077076;23;20898;-74
2023/03/08 11:25:11;;;;;;;6.20;3.23;;;9.20;1.00;;;;;;6101224;23;20506;-74
2023/03/08 11:27:56;;;;;;;5.53;3.57;;;9.10;1.00;;;;;;6099323;23;20464;-72
2023/03/08 11:30:32;;;;;;;8.73;3.70;;;9.00;1.00;;;;;;6100199;23;20486;-75
2023/03/08 11:33:24;;;;;;;6.68;3.50;;;8.70;1.00;;;;;;6101672;23;20680;-74
2023/03/08 11:35:59;;;;;;;6.63;3.45;;;8.40;1.00;;;;;;6094554;23;20243;-74
2023/03/08 11:38:28;;;;;;;16.48;5.45;;;8.30;1.00;;;;;;6074736;23;20712;-74
2023/03/08 11:41:01;;;;;;;6.38;3.17;;;8.50;1.00;;;;;;6099916;23;20219;-74
2023/03/08 11:43:48;;;;;;;10.75;3.90;;;8.20;1.00;;;;;;6091282;23;20270;-74
2023/03/08 11:46:22;;;;;;;6.13;3.53;;;8.20;1.00;;;;;;6099084;23;20232;-76
2023/03/08 11:49:10;;;;;;;6.25;3.50;;;8.30;1.00;;;;;;6098265;23;20444;-76
2023/03/08 11:51:48;;;;;;;4.93;2.90;;;8.20;1.00;;;;;;6096792;23;21027;-76
2023/03/08 11:54:19;;;;;;;8.43;4.18;;;8.20;1.00;;;;;;6098918;23;20236;-75
2023/03/08 11:56:54;;;;;;;6.20;3.90;;;8.00;1.00;;;;;;6097851;23;20296;-75
2023/03/08 11:59:29;;;;;;;7.00;4.43;;;8.10;1.00;;;;;;6098095;23;20223;-76
2023/03/08 12:02:02;;;;;;;7.63;5.03;;;8.10;1.00;;;;;;6092776;23;20980;-76
2023/03/08 12:04:35;;;;;;;6.95;4.25;;;7.90;1.00;;;;;;6094557;23;20219;-75
2023/03/08 12:07:09;;;;;;;7.05;4.10;;;7.70;1.00;;;;;;6094970;23;20216;-76
2023/03/08 12:09:40;;;;;;;8.45;4.75;;;7.60;1.00;;;;;;6096964;23;20218;-75
2023/03/08 12:12:14;;;;;;;6.90;4.43;;;7.60;1.00;;;;;;6096286;23;20236;-75
2023/03/08 12:14:50;;;;;;;7.43;5.50;;;7.60;1.00;;;;;;6094914;23;20304;-74
2023/03/08 12:17:21;;;;;;;6.97;4.70;;;7.60;1.00;;;;;;6095098;23;20225;-72
2023/03/08 12:19:50;;;;;;;7.00;4.05;;;7.50;1.00;;;;;;6090518;23;20681;-77
2023/03/08 12:22:35;;;;;;;7.65;3.70;;;7.20;1.00;;;;;;6097195;23;20277;-75
2023/03/08 12:25:12;;;;;;;6.93;4.13;;;7.50;1.00;;;;;;6096822;23;20259;-77
2023/03/08 12:27:45;;;;;;;8.13;5.03;;;8.10;1.00;;;;;;6095910;23;20219;-75
2023/03/08 12:30:23;;;;;;;7.50;4.30;;;8.60;1.00;;;;;;6100672;23;20931;-75
2023/03/08 12:32:54;;;;;;;6.23;4.23;;;8.60;1.00;;;;;;6095840;23;20427;-81
2023/03/08 12:35:27;;;;;;;5.43;3.53;;;8.70;1.00;;;;;;6102446;23;20519;-81
2023/03/08 12:38:01;;;;;;;6.77;3.73;;;8.60;1.00;;;;;;6101340;23;20463;-82
2023/03/08 12:40:36;;;;;;;6.07;3.53;;;8.10;1.00;;;;;;6094848;23;20429;-84
2023/03/08 12:43:09;;;;;;;6.93;4.28;;;7.80;1.00;;;;;;6095195;23;20219;-80
2023/03/08 12:45:37;;;;;;;6.75;3.85;;;7.60;1.00;;;;;;6097860;23;20320;-79
2023/03/08 12:48:26;;;;;;;11.33;5.03;;;7.40;1.00;;;;;;6100765;23;20221;-81
2023/03/08 12:51:00;;;;;;;9.73;4.25;;;7.50;1.00;;;;;;6094565;23;20437;-81
2023/03/08 12:53:34;;;;;;;5.72;3.78;;;7.40;1.00;;;;;;6098389;23;20215;-80
2023/03/08 12:56:07;;;;;;;6.68;3.75;;;7.20;1.00;;;;;;6103200;23;20243;-80
2023/03/08 12:58:37;;;;;;;7.90;4.70;;;6.90;1.00;;;;;;6098107;23;20281;-83
2023/03/08 13:01:06;;;;;;;8.90;4.17;;;6.70;1.00;;;;;;6102257;23;20216;-83
2023/03/08 13:03:40;;;;;;;8.13;4.57;;;6.60;1.00;;;;;;6099953;23;21230;-78
2023/03/08 13:06:49;;;;;;;7.15;4.30;;;6.40;1.00;;;;;;6099004;23;20309;-79
2023/03/08 13:09:22;;;;;;;7.20;4.30;;;6.40;1.00;;;;;;6102860;23;20219;-81